Home   Weather   USA   Stuart   Past weeks
Flag for USA

Past Weather in Stuart, Florida, USA — Yesterday and Last 2 Weeks

Currently: 72 °F. Clear. (Weather station: Witham Field Airport, USA). See more current weather

Past Weather in Stuart — Graph

°F

Stuart Temperature Yesterday

Maximum temperature yesterday: 84 °F (at 12:48 pm)
Minimum temperature yesterday: 59 °F (at 6:35 am)
Average temperature yesterday: 69 °F

High & Low Weather Summary for the Past Weeks

 TemperatureHumidityPressure
High86 °F (Mar 30, 2:47 pm)94% (Apr 1, 6:15 am)30.35 "Hg (Apr 1, 6:15 am)
Low54 °F (Apr 2, 6:15 am)25% (Apr 13, 12:48 pm)29.74 "Hg (Apr 11, 1:50 pm)
Average69 °F66%30.07 "Hg
* Reported Mar 30 6:15 am — Apr 14 6:35 am, Stuart. Weather by CustomWeather, © 2021

Note: Actual official high and low records may vary slightly from our data, if they occured in-between our weather recording intervals... More about our weather records

Stuart Weather History for the Previous 24 Hours

Scroll right to see more
 ConditionsComfort  
Time TempWeatherWind HumidityBarometerVisibility
6:35 am
Wed, Apr 14
72 °FClear.7 mph73%30.12 "Hg10 mi
6:15 am72 °FClear.8 mph73%30.10 "Hg10 mi
5:55 am72 °FClear.7 mph73%30.10 "Hg10 mi
5:35 am72 °FClear.5 mph73%30.10 "Hg10 mi
5:15 am72 °FClear.7 mph73%30.10 "Hg10 mi
4:55 am72 °FClear.8 mph73%30.10 "Hg10 mi
4:35 am72 °FClear.8 mph73%30.09 "Hg10 mi
3:55 am72 °FClear.8 mph73%30.09 "Hg10 mi
3:35 am72 °FClear.9 mph73%30.09 "Hg10 mi
3:15 am72 °FClear.9 mph73%30.08 "Hg10 mi
2:55 am72 °FClear.10 mph73%30.09 "Hg10 mi
2:35 am72 °FClear.9 mph73%30.10 "Hg10 mi
2:15 am72 °FClear.8 mph73%30.10 "Hg10 mi
1:55 am72 °FClear.7 mph78%30.10 "Hg10 mi
1:35 am72 °FClear.10 mph78%30.10 "Hg10 mi
1:15 am72 °FClear.10 mph78%30.10 "Hg10 mi
12:55 am72 °FClear.9 mph78%30.10 "Hg10 mi
12:35 am72 °FClear.9 mph73%30.10 "Hg10 mi
11:55 pm
Tue, Apr 13
72 °FClear.7 mph73%30.11 "Hg10 mi
11:35 pm72 °FClear.6 mph78%30.10 "Hg10 mi
11:15 pm73 °FClear.6 mph74%30.10 "Hg10 mi
10:55 pm73 °FClear.7 mph74%30.10 "Hg10 mi
10:35 pm73 °FClear.8 mph83%30.10 "Hg10 mi
10:15 pm73 °FClear.6 mph83%30.10 "Hg10 mi
9:55 pm73 °FClear.5 mph83%30.10 "Hg10 mi
8:47 pm73 °FClear.5 mph83%30.07 "Hg7 mi
7:47 pm75 °FClear.5 mph74%30.05 "Hg7 mi
6:47 pm77 °FSunny.8 mph65%30.05 "Hg7 mi
5:47 pm79 °FSunny.9 mph61%30.03 "Hg7 mi
4:47 pm81 °FSunny.12 mph54%30.02 "Hg7 mi
3:47 pm82 °FSunny.12 mph45%30.03 "Hg7 mi
2:48 pm84 °FSunny.7 mph33%30.04 "Hg10 mi
1:48 pm84 °FSunny.9 mph29%30.06 "Hg10 mi
12:48 pm84 °FSunny.10 mph25%30.07 "Hg10 mi
11:50 am81 °FSunny.7 mph39%30.09 "Hg10 mi
10:50 am77 °FSunny.No wind47%30.08 "Hg10 mi
9:50 am73 °FSunny.5 mph57%30.06 "Hg10 mi
8:50 am68 °FSunny.5 mph73%30.06 "Hg10 mi
7:50 am63 °FSunny.5 mph88%30.05 "Hg10 mi
Weather by CustomWeather, © 2021

See weather overview